METAR Data
IDs: Format: Raw Decoded Include TAF

Data at: 1402 UTC 14 Dec 2019

METAR for:KTVK (Centerville Muni, IA, US)
Text:KTVK 141335Z AUTO 30014KT 6SM BR FEW005 SCT010 BKN014 M03/M03 A2988 RMK AO2
Temperature: -3.0°C ( 27°F)
Dewpoint: -3.0°C ( 27°F) [RH = 100%]
Pressure (altimeter):29.88 inches Hg (1011.9 mb)
Winds:from the WNW (300 degrees) at 16 MPH (14 knots; 7.2 m/s)
Visibility: 6 sm ( 10 km)
Ceiling:1400 feet AGL
Clouds: few clouds at 500 feet AGL, scattered clouds at 1000 feet AGL, broken clouds at 1400 feet AGL
Weather:BR (mist)
QC Flag:automated observation with no human augmentation